Time;durP1;ratioP1;P1;durP2;ratioP2;P2;SDS_P1;SDS_P2;PMS_P1;PMS_P2;Temp;Humidity;BMP_temperature;BMP_pressure;BME280_temperature;BME280_humidity;BME280_pressure;Samples;Min_cycle;Max_cycle;Signal;HPM_P1;HPM_P2
2021/12/27 00:01:12;;;;;;;4.25;3.65;;;;;;;7.31;67.55;99004.44;5076898;28;20551;-78
2021/12/27 00:03:40;;;;;;;3.08;2.78;;;;;;;7.10;67.31;99004.31;5077003;28;20049;-79
2021/12/27 00:06:09;;;;;;;4.03;3.10;;;;;;;7.03;67.71;99007.53;5076735;28;20075;-78
2021/12/27 00:08:42;;;;;;;3.80;3.40;;;;;;;7.10;67.73;99012.63;5076795;28;20071;-78
2021/12/27 00:11:12;;;;;;;4.13;3.20;;;;;;;7.05;67.67;99007.22;5077397;28;20056;-78
2021/12/27 00:13:40;;;;;;;3.58;3.08;;;;;;;7.10;67.05;99013.41;5076583;28;20055;-78
2021/12/27 00:16:07;;;;;;;3.70;3.00;;;;;;;6.91;67.49;99002.69;5075931;28;20432;-78
2021/12/27 00:18:35;;;;;;;3.47;3.15;;;;;;;7.08;67.65;99007.41;5076286;28;20052;-78
2021/12/27 00:21:03;;;;;;;3.45;3.05;;;;;;;7.12;67.29;99002.03;5075357;28;20060;-78
2021/12/27 00:23:31;;;;;;;3.88;2.65;;;;;;;7.23;67.04;98999.72;5074971;28;20060;-78
2021/12/27 00:26:00;;;;;;;3.97;2.90;;;;;;;7.01;68.04;99000.72;5076427;28;20057;-78
2021/12/27 00:28:27;;;;;;;3.28;2.70;;;;;;;7.13;67.57;99000.88;5077363;28;20048;-78
2021/12/27 00:30:55;;;;;;;3.78;2.83;;;;;;;7.15;67.46;98990.28;5077432;28;20048;-78
2021/12/27 00:33:22;;;;;;;3.75;2.75;;;;;;;7.17;67.24;98985.22;5077254;28;20055;-78
2021/12/27 00:35:50;;;;;;;3.15;2.67;;;;;;;7.19;66.84;98984.91;5077741;28;20060;-78
2021/12/27 00:38:17;;;;;;;3.60;2.88;;;;;;;7.17;67.85;98976.13;5077772;28;20060;-79
2021/12/27 00:40:46;;;;;;;4.57;3.47;;;;;;;7.20;67.81;98972.69;5077335;28;20421;-79
2021/12/27 00:43:16;;;;;;;4.10;3.15;;;;;;;7.15;67.57;98976.44;5070721;28;20048;-79
2021/12/27 00:45:43;;;;;;;3.33;3.03;;;;;;;7.05;67.90;98974.81;5075731;28;20981;-79
2021/12/27 00:48:11;;;;;;;3.50;2.65;;;;;;;7.04;68.40;98972.41;5076111;28;20049;-79
2021/12/27 00:50:39;;;;;;;3.72;3.13;;;;;;;7.04;68.47;98967.66;5076421;28;20044;-79
2021/12/27 00:53:06;;;;;;;5.18;3.17;;;;;;;7.07;68.50;98975.31;5076060;28;20048;-79
2021/12/27 00:55:33;;;;;;;3.92;3.30;;;;;;;7.05;68.94;98974.00;5075505;28;20040;-79
2021/12/27 00:58:01;;;;;;;4.78;3.70;;;;;;;7.07;68.74;98969.75;5076036;28;20063;-79
2021/12/27 01:00:30;;;;;;;3.50;3.05;;;;;;;7.14;68.75;98960.97;5075772;28;20044;-79
2021/12/27 01:02:57;;;;;;;4.57;3.43;;;;;;;6.90;69.42;98962.28;5076147;28;20066;-78
2021/12/27 01:05:26;;;;;;;3.63;2.85;;;;;;;6.86;68.95;98966.84;5077673;28;20498;-79
2021/12/27 01:07:56;;;;;;;3.42;2.80;;;;;;;6.77;69.28;98963.28;5077038;28;20044;-79
2021/12/27 01:13:21;;;;;;;4.20;3.33;;;;;;;6.58;70.44;98962.81;5070521;28;20053;-79
2021/12/27 01:16:10;;;;;;;3.65;3.03;;;;;;;6.69;69.55;98955.81;5076736;28;20397;-79
2021/12/27 01:18:41;;;;;;;3.90;3.10;;;;;;;6.55;70.13;98955.16;5076074;28;20401;-78
2021/12/27 01:21:11;;;;;;;3.80;3.22;;;;;;;6.58;70.84;98954.50;5076556;28;20056;-79
2021/12/27 01:23:41;;;;;;;3.70;2.85;;;;;;;6.61;70.40;98960.19;5076958;28;20412;-79
2021/12/27 01:26:10;;;;;;;3.75;2.83;;;;;;;6.66;70.34;98960.03;5075731;28;20067;-79
2021/12/27 01:28:38;;;;;;;3.88;3.00;;;;;;;6.69;70.00;98964.91;5075042;28;20050;-78
2021/12/27 01:31:07;;;;;;;4.22;3.20;;;;;;;6.78;69.60;98958.56;5075346;28;20056;-79
2021/12/27 01:33:35;;;;;;;4.43;3.70;;;;;;;6.75;69.88;98973.06;5075375;28;20052;-78
2021/12/27 01:36:04;;;;;;;3.72;3.03;;;;;;;6.76;70.21;98961.69;5075704;28;20052;-78
2021/12/27 01:38:34;;;;;;;3.15;2.80;;;;;;;6.84;69.97;98968.31;5076464;28;20060;-78
2021/12/27 01:41:02;;;;;;;;;;;;;;;6.82;70.13;98963.13;5076438;28;20489;-79
2021/12/27 01:43:32;;;;;;;4.32;3.13;;;;;;;6.90;69.78;98951.22;5075598;28;19928;-79
2021/12/27 01:46:02;;;;;;;3.83;3.20;;;;;;;6.83;70.76;98959.22;5076352;28;20524;-79
2021/12/27 01:48:37;;;;;;;3.55;3.20;;;;;;;6.86;70.31;98961.31;5076309;28;20060;-79
2021/12/27 01:51:07;;;;;;;3.90;2.88;;;;;;;6.73;71.19;98955.97;5076374;28;20067;-79
2021/12/27 01:53:36;;;;;;;3.38;2.83;;;;;;;6.75;71.13;98962.00;5081402;28;20045;-79
2021/12/27 01:56:07;;;;;;;3.60;2.97;;;;;;;6.61;71.74;98960.19;5079189;28;20048;-79
2021/12/27 01:58:35;;;;;;;3.97;3.28;;;;;;;6.63;71.55;98965.41;5079996;28;20056;-79
2021/12/27 02:01:05;;;;;;;3.42;2.60;;;;;;;6.53;72.32;98962.94;5078086;28;20482;-78
2021/12/27 02:03:35;;;;;;;3.97;2.90;;;;;;;6.61;72.75;98962.16;5078794;28;20404;-78
2021/12/27 02:06:06;;;;;;;3.40;3.10;;;;;;;6.69;72.07;98956.59;5079472;28;20075;-79
2021/12/27 02:08:35;;;;;;;3.50;3.00;;;;;;;6.68;71.95;98954.19;5078429;28;20060;-78
2021/12/27 02:11:05;;;;;;;3.22;2.83;;;;;;;6.77;71.71;98955.00;5072663;28;20048;-79
2021/12/27 02:13:33;;;;;;;3.38;2.85;;;;;;;6.80;72.30;98953.50;5079256;28;20412;-78
2021/12/27 02:16:00;;;;;;;3.10;2.58;;;;;;;6.80;72.00;98953.50;5078855;28;20044;-79
2021/12/27 02:18:28;;;;;;;3.42;2.90;;;;;;;6.85;72.37;98956.13;5079546;28;20405;-79
2021/12/27 02:20:57;;;;;;;4.38;3.50;;;;;;;6.89;71.93;98954.34;5079225;28;20048;-78
2021/12/27 02:23:24;;;;;;;4.68;3.90;;;;;;;7.01;71.25;98953.66;5080809;28;20048;-78
2021/12/27 02:25:54;;;;;;;3.83;3.30;;;;;;;7.01;71.63;98948.13;5079535;28;20048;-79
2021/12/27 02:28:21;;;;;;;;;;;;;;;7.06;72.31;98942.44;5080517;28;20053;-79
2021/12/27 02:30:51;;;;;;;4.40;3.63;;;;;;;7.00;72.76;98943.75;5078438;28;19920;-79
2021/12/27 02:33:22;;;;;;;4.15;3.67;;;;;;;7.02;71.67;98933.97;5079516;28;20056;-79
2021/12/27 02:35:51;;;;;;;3.78;3.08;;;;;;;7.07;71.85;98941.28;5079841;28;20048;-79
2021/12/27 02:38:22;;;;;;;3.30;2.95;;;;;;;6.88;72.07;98928.59;5078396;28;20045;-79
2021/12/27 02:40:51;;;;;;;4.00;3.55;;;;;;;6.91;71.79;98929.91;5078014;28;20044;-79
2021/12/27 02:43:20;;;;;;;3.83;3.15;;;;;;;6.80;72.91;98932.19;5070609;28;20422;-79
2021/12/27 02:45:49;;;;;;;4.55;3.38;;;;;;;6.94;72.47;98922.91;5079166;28;20045;-78
2021/12/27 02:48:20;;;;;;;3.38;2.97;;;;;;;7.01;72.19;98925.97;5078974;28;20044;-78
2021/12/27 02:50:49;;;;;;;4.35;3.83;;;;;;;6.70;74.06;98924.25;5077772;28;20048;-79
2021/12/27 02:53:17;;;;;;;4.32;3.60;;;;;;;6.73;73.77;98931.88;5078524;28;20512;-79
2021/12/27 02:55:48;;;;;;;4.05;3.40;;;;;;;6.74;73.49;98930.75;5078892;28;20052;-79
2021/12/27 02:58:15;;;;;;;4.10;3.60;;;;;;;6.79;73.53;98933.34;5078654;28;20531;-79
2021/12/27 03:00:50;;;;;;;4.65;3.65;;;;;;;6.83;73.80;98927.97;5078102;28;20052;-79
2021/12/27 03:03:17;;;;;;;4.00;3.58;;;;;;;6.93;73.33;98921.25;5077932;28;20056;-79
2021/12/27 03:05:46;;;;;;;3.75;3.35;;;;;;;7.00;72.65;98922.41;5077458;28;20055;-79
2021/12/27 03:08:14;;;;;;;4.07;3.67;;;;;;;6.97;73.68;98925.00;5078876;28;20040;-78
2021/12/27 03:10:45;;;;;;;3.50;2.90;;;;;;;6.99;73.84;98926.31;5078452;28;20049;-78
2021/12/27 03:13:18;;;;;;;3.85;3.33;;;;;;;7.00;72.70;98921.59;5078561;28;20060;-79
2021/12/27 03:15:46;;;;;;;3.88;2.83;;;;;;;7.09;73.02;98923.19;5072356;28;20053;-79
2021/12/27 03:18:14;;;;;;;3.30;2.97;;;;;;;6.81;74.31;98911.69;5078343;28;20535;-79
2021/12/27 03:20:41;;;;;;;4.00;3.50;;;;;;;7.04;73.71;98911.50;5067999;28;20063;-79
2021/12/27 03:23:10;;;;;;;4.50;3.13;;;;;;;7.02;73.81;98902.69;5078380;28;20053;-79
2021/12/27 03:25:39;;;;;;;3.95;3.33;;;;;;;7.03;74.40;98907.06;5076149;28;20056;-78
2021/12/27 03:28:08;;;;;;;4.97;3.38;;;;;;;7.08;74.06;98907.72;5075512;28;20390;-78
2021/12/27 03:30:37;;;;;;;4.05;3.50;;;;;;;7.02;73.64;98902.69;5074630;28;20053;-78
2021/12/27 03:33:06;;;;;;;5.05;3.67;;;;;;;7.04;74.24;98898.44;5075433;28;20523;-78
2021/12/27 03:35:38;;;;;;;4.00;3.60;;;;;;;7.14;73.36;98894.53;5075306;28;20053;-78
2021/12/27 03:38:07;;;;;;;3.92;3.45;;;;;;;7.23;73.97;98898.06;5075329;28;20429;-78
2021/12/27 03:40:36;;;;;;;3.85;3.35;;;;;;;7.28;73.61;98905.38;5076269;28;20416;-79
2021/12/27 03:43:04;;;;;;;4.30;3.63;;;;;;;7.33;73.51;98896.91;5077326;28;20059;-79
2021/12/27 03:45:36;;;;;;;5.78;3.83;;;;;;;7.35;73.58;98897.38;5077899;28;20481;-78
2021/12/27 03:48:05;;;;;;;5.00;3.33;;;;;;;7.41;73.66;98896.06;5076967;28;20440;-79
2021/12/27 03:50:33;;;;;;;4.03;3.63;;;;;;;7.38;73.37;98905.03;5077154;28;20056;-79
2021/12/27 03:53:00;;;;;;;7.25;5.60;;;;;;;7.39;72.91;98906.66;5068416;28;20056;-79
2021/12/27 03:55:28;;;;;;;5.85;4.80;;;;;;;7.44;73.28;98902.88;5078172;28;20048;-79
2021/12/27 03:58:06;;;;;;;5.93;5.20;;;;;;;7.49;73.04;98894.38;5076943;28;20048;-79
2021/12/27 04:01:00;;;;;;;6.43;4.78;;;;;;;7.58;72.52;98903.47;5077566;28;20051;-79
2021/12/27 04:03:29;;;;;;;4.00;3.10;;;;;;;7.58;71.97;98897.94;5072731;28;20059;-81
2021/12/27 04:05:57;;;;;;;4.10;3.28;;;;;;;7.57;72.73;98890.75;5076761;28;20063;-78
2021/12/27 04:08:24;;;;;;;4.63;3.80;;;;;;;7.61;72.11;98888.94;5076153;28;20052;-78
2021/12/27 04:10:53;;;;;;;3.10;2.80;;;;;;;7.62;72.05;98887.81;5077118;28;20052;-79
2021/12/27 04:13:21;;;;;;;4.10;3.20;;;;;;;7.68;71.98;98886.47;5078032;28;20072;-79
2021/12/27 04:15:51;;;;;;;3.80;3.25;;;;;;;7.64;72.28;98879.16;5076799;28;20051;-78
2021/12/27 04:18:19;;;;;;;4.70;3.05;;;;;;;7.70;71.73;98880.59;5075248;28;20067;-79
2021/12/27 04:20:46;;;;;;;4.70;3.72;;;;;;;7.70;71.72;98873.06;5075407;28;20404;-79
2021/12/27 04:23:14;;;;;;;4.38;3.83;;;;;;;7.52;71.90;98889.00;5076094;28;20064;-79
2021/12/27 04:25:42;;;;;;;3.88;3.33;;;;;;;7.51;71.47;98892.91;5076156;28;20053;-78
2021/12/27 04:28:10;;;;;;;3.15;2.83;;;;;;;7.59;71.11;98877.38;5076159;28;20048;-79
2021/12/27 04:30:38;;;;;;;4.10;3.47;;;;;;;7.41;71.63;98887.75;5076168;28;20397;-79
2021/12/27 04:33:07;;;;;;;3.42;3.08;;;;;;;7.20;72.31;98881.28;5075854;28;20527;-78
2021/12/27 04:39:17;;;;;;;4.20;3.50;;;;;;;7.40;72.00;98877.81;5074832;28;20059;-79
2021/12/27 04:41:45;;;;;;;5.40;4.22;;;;;;;7.19;72.22;98883.25;5057844;28;20041;-79
2021/12/27 04:44:12;;;;;;;3.40;3.10;;;;;;;7.16;72.92;98883.09;5077163;28;20405;-79
2021/12/27 04:46:39;;;;;;;3.63;3.30;;;;;;;7.12;73.52;98880.19;5075957;28;20052;-79
2021/12/27 04:49:08;;;;;;;4.30;3.63;;;;;;;7.34;72.41;98876.34;5076371;28;20048;-79
2021/12/27 04:51:38;;;;;;;3.97;3.55;;;;;;;7.28;72.69;98877.69;5076589;28;20803;-79
2021/12/27 04:54:07;;;;;;;3.78;3.38;;;;;;;7.08;73.09;98879.22;5072097;28;20056;-79
2021/12/27 04:56:38;;;;;;;3.53;3.22;;;;;;;7.16;72.47;98870.09;5075939;28;20092;-78
2021/12/27 04:59:05;;;;;;;3.40;2.95;;;;;;;7.35;72.10;98866.09;5076602;28;20045;-79
2021/12/27 05:01:32;;;;;;;4.05;3.65;;;;;;;7.13;72.85;98870.72;5074993;28;20052;-78
2021/12/27 05:04:00;;;;;;;3.72;3.42;;;;;;;7.21;72.38;98861.59;5076241;28;20048;-79
2021/12/27 05:06:29;;;;;;;4.10;3.63;;;;;;;7.30;72.20;98865.13;5075266;28;20057;-79
2021/12/27 05:08:56;;;;;;;3.33;2.63;;;;;;;7.36;72.13;98853.88;5076341;28;20060;-77
2021/12/27 05:11:24;;;;;;;4.28;2.90;;;;;;;7.29;71.79;98852.44;5076221;28;20481;-78
2021/12/27 05:13:51;;;;;;;3.65;3.33;;;;;;;7.13;73.10;98848.59;5076339;28;20040;-79
2021/12/27 05:16:21;;;;;;;3.15;2.80;;;;;;;7.18;72.55;98845.66;5076998;28;20420;-78
2021/12/27 05:18:48;;;;;;;3.08;2.70;;;;;;;7.31;72.34;98841.84;5075240;28;20059;-78
2021/12/27 05:21:15;;;;;;;3.45;2.75;;;;;;;7.39;71.84;98834.66;5075799;28;20056;-78
2021/12/27 05:23:47;;;;;;;3.30;2.72;;;;;;;7.41;72.31;98831.50;5075949;28;20702;-78
2021/12/27 05:26:17;;;;;;;3.28;2.70;;;;;;;7.47;71.61;98835.72;5075258;28;20044;-79
2021/12/27 05:28:45;;;;;;;2.88;2.58;;;;;;;7.48;72.20;98842.91;5075480;28;20055;-79
2021/12/27 05:31:16;;;;;;;3.20;2.75;;;;;;;7.54;71.66;98849.88;5078789;28;20048;-78
2021/12/27 05:33:44;;;;;;;3.50;2.80;;;;;;;7.57;71.83;98853.94;5078907;28;20630;-79
2021/12/27 05:36:12;;;;;;;3.10;2.80;;;;;;;7.52;72.43;98850.22;5079202;28;20055;-78
2021/12/27 05:38:39;;;;;;;3.90;2.92;;;;;;;7.50;72.62;98846.16;5078284;28;20055;-78
2021/12/27 05:41:08;;;;;;;3.38;2.58;;;;;;;7.52;72.28;98850.22;5078401;28;20049;-79
2021/12/27 05:43:35;;;;;;;3.65;3.35;;;;;;;7.49;71.65;98844.50;5078924;28;20394;-78
2021/12/27 05:46:03;;;;;;;3.60;3.30;;;;;;;7.48;72.30;98842.91;5079460;28;20390;-79
2021/12/27 05:48:33;;;;;;;3.58;3.22;;;;;;;7.52;71.67;98836.34;5078666;28;20049;-79
2021/12/27 05:51:01;;;;;;;3.08;2.78;;;;;;;7.46;71.74;98845.19;5078272;28;20059;-79
2021/12/27 05:53:28;;;;;;;2.72;2.47;;;;;;;7.50;72.26;98851.69;5079798;28;20064;-79
2021/12/27 05:55:55;;;;;;;3.72;3.28;;;;;;;7.49;71.33;98828.69;5079586;28;20059;-79
2021/12/27 05:58:25;;;;;;;3.17;2.88;;;;;;;7.56;71.36;98832.91;5079724;28;20053;-78
2021/12/27 06:00:53;;;;;;;3.85;2.80;;;;;;;7.56;71.93;98819.88;5078280;28;20052;-79
2021/12/27 06:03:22;;;;;;;3.25;2.70;;;;;;;7.57;71.54;98818.72;5079788;28;20060;-79
2021/12/27 06:05:49;;;;;;;3.67;3.08;;;;;;;7.52;71.96;98824.47;5078601;28;20052;-79
2021/12/27 06:08:17;;;;;;;3.28;2.75;;;;;;;7.55;71.55;98820.22;5070495;28;20389;-79
2021/12/27 06:10:44;;;;;;;3.40;2.90;;;;;;;7.58;71.66;98817.59;5077039;28;20055;-79
2021/12/27 06:13:11;;;;;;;3.25;2.95;;;;;;;7.50;71.33;98824.78;5078582;28;20055;-78
2021/12/27 06:15:40;;;;;;;3.90;3.38;;;;;;;7.47;71.88;98816.34;5078169;28;20048;-78
2021/12/27 06:18:07;;;;;;;2.95;2.38;;;;;;;7.47;71.77;98821.88;5078681;28;20489;-78
2021/12/27 06:20:35;;;;;;;3.58;3.00;;;;;;;7.36;71.86;98823.41;5077267;28;20044;-78
2021/12/27 06:23:02;;;;;;;4.55;2.90;;;;;;;7.20;73.10;98821.22;5077999;28;20048;-78
2021/12/27 06:25:29;;;;;;;3.40;2.60;;;;;;;7.20;72.59;98826.75;5070882;28;20440;-78
2021/12/27 06:27:58;;;;;;;3.40;2.72;;;;;;;7.22;72.99;98818.91;5077959;28;20048;-79
2021/12/27 06:30:26;;;;;;;3.67;3.20;;;;;;;7.18;72.30;98828.19;5076892;28;20414;-79
2021/12/27 06:32:55;;;;;;;4.03;3.40;;;;;;;7.11;73.09;98824.00;5077731;28;20052;-79
2021/12/27 06:35:22;;;;;;;3.53;3.13;;;;;;;7.16;72.99;98825.78;5077695;28;20049;-79
2021/12/27 06:37:49;;;;;;;5.68;3.92;;;;;;;7.25;72.89;98834.06;5078138;28;20048;-78
2021/12/27 06:40:18;;;;;;;6.72;5.10;;;;;;;7.31;73.06;98839.06;5077757;28;20053;-78
2021/12/27 06:42:46;;;;;;;6.95;6.03;;;;;;;7.25;72.87;98831.28;5078751;28;20055;-78
2021/12/27 06:45:16;;;;;;;5.05;3.65;;;;;;;7.27;72.87;98827.03;5077841;28;20048;-78
2021/12/27 06:47:44;;;;;;;3.20;2.78;;;;;;;7.21;72.85;98828.34;5078988;28;20056;-78
2021/12/27 06:50:13;;;;;;;4.55;3.55;;;;;;;7.29;72.97;98823.94;5077693;28;20051;-78
2021/12/27 06:52:41;;;;;;;4.65;3.33;;;;;;;7.32;72.81;98823.25;5076340;28;20056;-79
2021/12/27 06:55:10;;;;;;;4.10;3.50;;;;;;;7.43;72.74;98812.59;5077776;28;20409;-79
2021/12/27 06:57:38;;;;;;;4.35;3.08;;;;;;;7.51;72.13;98807.00;5077783;28;20064;-79
2021/12/27 07:00:08;;;;;;;3.63;3.08;;;;;;;7.46;71.84;98811.97;5077182;28;20049;-78
2021/12/27 07:02:36;;;;;;;4.28;3.58;;;;;;;7.58;72.22;98813.97;5060342;28;20053;-79
2021/12/27 07:05:04;;;;;;;4.78;3.72;;;;;;;7.49;72.53;98816.81;5077954;28;20385;-79
2021/12/27 07:07:33;;;;;;;3.78;3.35;;;;;;;7.54;72.35;98827.72;5078503;28;20485;-79
2021/12/27 07:10:00;;;;;;;5.15;3.75;;;;;;;7.61;72.11;98822.44;5078721;28;20055;-79
2021/12/27 07:12:28;;;;;;;3.85;3.30;;;;;;;7.63;72.02;98822.13;5078402;28;20057;-79
2021/12/27 07:14:55;;;;;;;3.80;3.28;;;;;;;7.69;71.47;98821.59;5078099;28;20064;-79
2021/12/27 07:17:22;;;;;;;3.83;3.20;;;;;;;7.68;71.49;98819.13;5078459;28;20413;-79
2021/12/27 07:19:50;;;;;;;4.68;3.20;;;;;;;7.70;71.01;98819.63;5077473;28;20060;-78
2021/12/27 07:22:17;;;;;;;4.05;3.45;;;;;;;7.63;71.48;98820.16;5077290;28;20059;-78
2021/12/27 07:24:46;;;;;;;6.03;3.70;;;;;;;7.60;71.84;98822.78;5078171;28;20051;-78
2021/12/27 07:27:13;;;;;;;5.63;4.40;;;;;;;7.49;72.19;98819.59;5077429;28;20059;-79
2021/12/27 07:29:41;;;;;;;5.93;4.28;;;;;;;7.59;72.41;98816.44;5076625;28;20045;-79
2021/12/27 07:32:09;;;;;;;6.00;3.97;;;;;;;7.61;71.98;98819.69;5077445;28;20067;-79
2021/12/27 07:34:36;;;;;;;6.22;4.75;;;;;;;7.60;71.96;98815.28;5077669;28;20067;-79
2021/12/27 07:37:04;;;;;;;4.13;3.72;;;;;;;7.66;71.52;98821.44;5077074;28;20486;-79
2021/12/27 07:39:31;;;;;;;4.75;4.25;;;;;;;7.67;71.64;98812.00;5077621;28;20055;-79
2021/12/27 07:42:00;;;;;;;4.97;4.22;;;;;;;7.46;72.33;98818.31;5077657;28;20401;-79
2021/12/27 07:44:28;;;;;;;4.65;3.38;;;;;;;7.64;71.67;98813.47;5069772;28;20385;-79
2021/12/27 07:46:55;;;;;;;3.97;3.58;;;;;;;7.69;71.93;98813.28;5077003;28;20052;-79
2021/12/27 07:49:22;;;;;;;4.10;3.40;;;;;;;7.62;71.77;98807.47;5077713;28;20053;-79
2021/12/27 07:51:50;;;;;;;4.75;3.67;;;;;;;7.38;72.99;98816.38;5075478;28;20056;-78
2021/12/27 07:54:18;;;;;;;5.55;3.72;;;;;;;7.40;72.93;98810.53;5076811;28;20049;-79
2021/12/27 07:56:45;;;;;;;4.05;3.28;;;;;;;7.65;73.12;98806.78;5077439;28;20048;-79
2021/12/27 07:59:14;;;;;;;4.28;3.50;;;;;;;7.87;71.97;98807.59;5077000;28;20043;-78
2021/12/27 08:01:42;;;;;;;6.32;4.25;;;;;;;7.86;71.70;98812.34;5077449;28;20067;-79
2021/12/27 08:04:09;;;;;;;4.63;4.10;;;;;;;7.99;71.63;98817.97;5076107;28;20049;-78
2021/12/27 08:06:37;;;;;;;3.50;3.05;;;;;;;8.09;71.18;98807.28;5076880;28;20051;-79
2021/12/27 08:09:05;;;;;;;3.58;3.10;;;;;;;8.16;71.52;98797.59;5076847;28;20052;-79
2021/12/27 08:11:33;;;;;;;3.75;3.30;;;;;;;8.24;70.83;98802.25;5076316;28;20041;-79
2021/12/27 08:14:00;;;;;;;4.40;4.00;;;;;;;8.33;70.40;98803.78;5077502;28;20075;-79
2021/12/27 08:16:29;;;;;;;4.78;3.90;;;;;;;8.33;70.79;98798.22;5077145;28;20063;-79
2021/12/27 08:18:57;;;;;;;5.03;4.23;;;;;;;8.41;70.29;98807.66;5076456;28;20060;-79
2021/12/27 08:21:26;;;;;;;8.32;6.95;;;;;;;8.27;69.96;98816.28;5076836;28;20067;-79
2021/12/27 08:23:54;;;;;;;6.50;4.70;;;;;;;8.34;69.87;98821.25;5077048;28;20048;-79
2021/12/27 08:26:21;;;;;;;5.13;4.00;;;;;;;8.42;69.79;98819.56;5077170;28;20052;-78
2021/12/27 08:28:52;;;;;;;4.30;3.75;;;;;;;8.45;70.03;98808.59;5076806;28;20063;-79
2021/12/27 08:31:20;;;;;;;4.60;4.00;;;;;;;8.48;70.29;98819.03;5077048;28;20708;-79
2021/12/27 08:33:49;;;;;;;4.50;4.10;;;;;;;8.47;69.67;98814.63;5076867;28;20044;-79
2021/12/27 08:36:19;;;;;;;5.32;3.95;;;;;;;8.53;69.97;98809.69;5077355;28;20056;-79
2021/12/27 08:38:48;;;;;;;4.43;3.50;;;;;;;8.58;69.79;98800.34;5078481;28;20057;-78
2021/12/27 08:41:16;;;;;;;4.80;3.83;;;;;;;8.68;69.01;98813.78;5072196;28;20106;-78
2021/12/27 08:43:44;;;;;;;4.78;3.50;;;;;;;8.79;68.86;98809.41;5073864;28;20059;-78
2021/12/27 08:46:12;;;;;;;5.25;3.80;;;;;;;8.84;69.08;98789.75;5075615;28;20049;-78
2021/12/27 08:48:40;;;;;;;4.35;3.45;;;;;;;9.43;67.39;98788.53;5074640;28;20056;-78
2021/12/27 08:51:09;;;;;;;4.47;2.90;;;;;;;10.14;65.76;98783.50;5074366;28;20049;-78
2021/12/27 08:53:37;;;;;;;3.80;2.85;;;;;;;11.46;62.75;98783.44;5075020;28;20045;-78
2021/12/27 08:56:05;;;;;;;3.63;2.70;;;;;;;13.36;57.04;98792.91;5057783;28;20068;-79
2021/12/27 08:58:33;;;;;;;3.10;2.10;;;;;;;14.12;54.44;98780.00;5073109;28;20408;-76
2021/12/27 09:01:00;;;;;;;3.63;2.00;;;;;;;14.99;51.48;98774.22;5075331;28;20052;-78
2021/12/27 09:03:27;;;;;;;3.00;2.17;;;;;;;15.79;49.05;98771.69;5077165;28;20056;-78
2021/12/27 09:05:54;;;;;;;3.08;2.67;;;;;;;16.96;46.72;98775.38;5081527;28;20063;-78
2021/12/27 09:08:23;;;;;;;3.20;2.90;;;;;;;18.18;43.63;98789.41;5082955;28;20070;-79
2021/12/27 09:10:51;;;;;;;3.75;3.17;;;;;;;18.54;41.66;98796.94;5077304;28;20045;-79
2021/12/27 09:13:18;;;;;;;3.40;2.60;;;;;;;17.80;42.25;98794.69;5080341;28;20053;-79
2021/12/27 09:15:45;;;;;;;2.97;2.13;;;;;;;17.06;43.72;98799.13;5082072;28;20523;-78
2021/12/27 09:18:13;;;;;;;2.47;1.83;;;;;;;16.64;44.77;98792.94;5082629;28;20059;-80
2021/12/27 09:20:41;;;;;;;2.58;1.95;;;;;;;17.10;43.95;98796.31;5072455;28;20071;-77
2021/12/27 09:23:08;;;;;;;2.08;1.60;;;;;;;16.79;44.18;98793.00;5076573;28;20053;-79
2021/12/27 09:25:37;;;;;;;2.40;1.80;;;;;;;16.21;45.18;98791.97;5080252;28;20075;-78
2021/12/27 09:28:05;;;;;;;2.15;1.60;;;;;;;16.12;45.70;98797.94;5080812;28;20051;-78
2021/12/27 09:30:32;;;;;;;1.80;1.50;;;;;;;16.46;44.84;98786.47;5078851;28;20052;-80
2021/12/27 09:32:59;;;;;;;2.45;1.60;;;;;;;17.50;42.50;98797.16;5072439;28;20048;-79
2021/12/27 09:35:27;;;;;;;2.13;1.73;;;;;;;18.11;41.74;98785.81;5081467;28;20053;-82
2021/12/27 09:37:56;;;;;;;1.60;1.40;;;;;;;18.94;40.08;98792.75;5083132;28;20495;-82
2021/12/27 09:40:23;;;;;;;2.53;1.42;;;;;;;18.43;40.20;98778.03;5089779;28;20064;-81
2021/12/27 09:42:53;;;;;;;1.90;1.60;;;;;;;19.86;38.58;98773.47;5087467;28;20052;-82
2021/12/27 09:45:22;;;;;;;2.20;1.55;;;;;;;19.41;38.51;98776.25;5078349;28;20055;-78
2021/12/27 09:47:51;;;;;;;1.67;1.20;;;;;;;20.24;37.87;98773.47;5062142;28;20063;-82
2021/12/27 09:50:28;;;;;;;2.38;1.65;;;;;;;20.58;35.63;98767.00;5079179;28;20531;-84
2021/12/27 09:52:56;;;;;;;1.92;1.20;;;;;;;20.65;36.83;98757.63;5078478;28;20049;-79
2021/12/27 09:55:23;;;;;;;2.40;1.50;;;;;;;20.80;36.11;98761.84;5077026;28;20056;-78
2021/12/27 09:57:52;;;;;;;3.03;1.15;;;;;;;19.99;37.42;98755.97;5077139;28;20048;-78
2021/12/27 10:00:22;;;;;;;1.75;1.17;;;;;;;19.32;38.21;98755.34;5076459;28;20055;-79
2021/12/27 10:02:52;;;;;;;2.13;1.63;;;;;;;17.68;41.09;98764.16;5077540;28;20040;-78
2021/12/27 10:05:20;;;;;;;;;;;;;;;16.70;42.72;98756.03;5079622;28;20056;-77
2021/12/27 10:07:47;;;;;;;1.95;1.50;;;;;;;16.36;44.12;98753.53;5078406;28;19920;-79
2021/12/27 10:10:15;;;;;;;2.15;1.50;;;;;;;15.76;44.89;98741.59;5078528;28;20049;-79
2021/12/27 10:12:43;;;;;;;2.33;1.55;;;;;;;14.74;47.56;98738.34;5076254;28;20067;-80
2021/12/27 10:15:15;;;;;;;2.15;1.58;;;;;;;14.65;48.20;98742.66;5072609;28;20072;-79
2021/12/27 10:17:43;;;;;;;2.33;1.70;;;;;;;14.34;48.84;98723.09;5073230;28;20055;-80
2021/12/27 10:20:13;;;;;;;2.15;1.65;;;;;;;14.09;50.03;98721.97;5076589;28;20052;-78
2021/12/27 10:22:44;;;;;;;2.10;1.35;;;;;;;13.89;50.81;98726.91;5077885;28;20049;-78
2021/12/27 10:25:16;;;;;;;3.17;1.65;;;;;;;13.97;50.72;98723.03;5076849;28;20052;-78
2021/12/27 10:27:44;;;;;;;2.30;1.60;;;;;;;13.71;50.94;98721.91;5077113;28;20123;-77
2021/12/27 10:30:16;;;;;;;2.60;1.30;;;;;;;14.01;50.83;98727.47;5076951;28;20421;-77
2021/12/27 10:32:44;;;;;;;2.10;1.30;;;;;;;14.08;50.82;98726.75;5077713;28;20064;-79
2021/12/27 10:35:13;;;;;;;2.10;1.60;;;;;;;14.23;50.37;98727.75;5077471;28;20051;-77
2021/12/27 10:37:43;;;;;;;2.42;1.50;;;;;;;14.55;50.35;98725.34;5077385;28;20055;-78
2021/12/27 10:40:14;;;;;;;2.47;1.95;;;;;;;15.58;48.54;98721.81;5077384;28;20063;-79
2021/12/27 10:42:45;;;;;;;3.95;2.53;;;;;;;17.81;44.41;98723.09;5078001;28;20053;-78
2021/12/27 10:45:16;;;;;;;4.07;3.10;;;;;;;19.82;40.13;98707.72;5078676;28;20061;-79
2021/12/27 10:47:45;;;;;;;2.97;2.45;;;;;;;20.06;40.12;98708.66;5078551;28;20485;-78
2021/12/27 10:50:16;;;;;;;3.27;2.17;;;;;;;20.03;38.82;98703.84;5077686;28;20057;-78
2021/12/27 10:52:58;;;;;;;3.58;1.80;;;;;;;19.19;39.37;98702.25;5079029;28;20067;-78
2021/12/27 10:55:30;;;;;;;3.05;1.95;;;;;;;18.40;41.10;98708.41;5076095;28;20053;-79
2021/12/27 10:58:23;;;;;;;2.65;1.92;;;;;;;17.58;42.29;98703.84;5071916;28;20520;-79
2021/12/27 11:00:55;;;;;;;3.22;2.40;;;;;;;17.00;44.09;98714.31;5074433;28;20057;-78
2021/12/27 11:03:28;;;;;;;2.03;1.73;;;;;;;16.56;45.17;98714.63;5076227;28;20047;-78
2021/12/27 11:05:57;;;;;;;2.53;1.80;;;;;;;15.96;46.22;98713.22;5079259;28;20394;-78
2021/12/27 11:08:26;;;;;;;2.25;1.58;;;;;;;14.96;48.75;98713.31;5078767;28;20059;-77
2021/12/27 11:10:54;;;;;;;1.75;1.30;;;;;;;14.50;50.08;98711.63;5077524;28;20048;-79
2021/12/27 11:13:22;;;;;;;2.10;1.40;;;;;;;14.01;50.99;98704.28;5079697;28;21182;-79
2021/12/27 11:15:51;;;;;;;3.22;1.30;;;;;;;13.44;52.97;98700.69;5078951;28;20045;-78
2021/12/27 11:18:19;;;;;;;2.00;1.42;;;;;;;13.02;54.24;98693.25;5079332;28;20048;-78
2021/12/27 11:20:50;;;;;;;1.80;1.13;;;;;;;12.81;55.15;98700.09;5077918;28;20060;-78
2021/12/27 11:23:20;;;;;;;1.95;1.55;;;;;;;13.29;54.47;98697.72;5079474;28;20063;-78
2021/12/27 11:25:48;;;;;;;2.10;1.52;;;;;;;13.68;53.53;98682.66;5077059;28;20050;-78
2021/12/27 11:28:27;;;;;;;1.98;1.45;;;;;;;14.33;52.26;98679.44;5077138;28;20048;-78
2021/12/27 11:30:59;;;;;;;2.78;1.60;;;;;;;15.20;49.83;98675.44;5075535;28;20052;-78
2021/12/27 11:33:27;;;;;;;2.30;1.88;;;;;;;15.09;50.07;98672.56;5077321;28;20078;-77
2021/12/27 11:36:10;;;;;;;2.65;2.03;;;;;;;15.68;48.29;98675.34;5076408;28;20055;-79
2021/12/27 11:38:40;;;;;;;2.00;1.70;;;;;;;15.54;48.33;98667.66;5078454;28;20057;-79
2021/12/27 11:41:29;;;;;;;2.10;1.83;;;;;;;16.15;46.41;98675.59;5077525;28;20052;-79
2021/12/27 11:43:57;;;;;;;1.73;1.25;;;;;;;13.63;52.16;98681.03;5078776;28;20477;-79
2021/12/27 11:46:28;;;;;;;1.50;1.10;;;;;;;14.25;51.05;98679.75;5077510;28;20055;-79
2021/12/27 11:48:58;;;;;;;1.80;1.48;;;;;;;14.87;49.97;98665.19;5077977;28;20052;-79
2021/12/27 11:51:33;;;;;;;1.63;1.27;;;;;;;15.78;47.63;98652.16;5076801;28;20056;-79
2021/12/27 11:54:02;;;;;;;1.52;1.15;;;;;;;15.23;48.90;98657.84;5076525;28;20060;-79
2021/12/27 11:56:48;;;;;;;2.75;1.50;;;;;;;14.33;50.41;98671.03;5077286;28;20055;-79